createdAt,value
2023-04-22T00:00:46.475Z,0.00
2023-04-22T00:01:47.403Z,0.00
2023-04-22T00:02:48.482Z,0.00
2023-04-22T00:03:49.149Z,0.00
2023-04-22T00:04:49.793Z,0.00
2023-04-22T00:05:50.357Z,0.00
2023-04-22T00:06:50.774Z,0.00
2023-04-22T00:07:51.681Z,0.00
2023-04-22T00:08:52.574Z,0.00
2023-04-22T00:09:53.506Z,0.00
2023-04-22T00:10:54.371Z,0.00
2023-04-22T00:11:55.261Z,0.00
2023-04-22T00:12:56.176Z,0.00
2023-04-22T00:13:57.069Z,0.00
2023-04-22T00:14:57.947Z,0.00
2023-04-22T00:15:58.900Z,0.00
2023-04-22T00:16:59.818Z,0.00
2023-04-22T00:18:00.759Z,0.00
2023-04-22T00:19:01.635Z,0.00
2023-04-22T00:20:02.525Z,0.00
2023-04-22T00:21:03.417Z,0.00
2023-04-22T00:22:04.293Z,0.00
2023-04-22T00:23:05.210Z,0.00
2023-04-22T00:24:06.099Z,0.00
2023-04-22T00:25:07.043Z,0.00
2023-04-22T00:26:07.910Z,0.00
2023-04-22T00:27:08.805Z,0.00
2023-04-22T00:28:09.754Z,0.00
2023-04-22T00:29:10.653Z,0.00
2023-04-22T00:30:11.518Z,0.00
2023-04-22T00:31:12.529Z,0.00
2023-04-22T00:32:12.989Z,0.00
2023-04-22T00:33:14.015Z,0.00
2023-04-22T00:34:14.360Z,0.00
2023-04-22T00:35:15.249Z,0.00
2023-04-22T00:36:16.153Z,0.00
2023-04-22T00:37:17.038Z,0.00
2023-04-22T00:38:17.952Z,0.00
2023-04-22T00:39:18.885Z,0.00
2023-04-22T00:40:19.780Z,0.00
2023-04-22T00:41:20.693Z,0.00
2023-04-22T00:42:21.569Z,0.00
2023-04-22T00:43:22.481Z,0.00
2023-04-22T00:44:23.398Z,0.00
2023-04-22T00:45:24.342Z,0.00
2023-04-22T00:46:25.222Z,0.00
2023-04-22T00:47:26.104Z,0.00
2023-04-22T00:48:28.882Z,0.00
2023-04-22T00:49:27.898Z,0.00
2023-04-22T00:50:28.823Z,0.00
2023-04-22T00:51:29.710Z,0.00
2023-04-22T00:52:30.592Z,0.00
2023-04-22T00:53:31.477Z,0.00
2023-04-22T00:54:32.389Z,0.00
2023-04-22T00:55:33.286Z,0.00
2023-04-22T00:56:34.186Z,0.00
2023-04-22T00:57:35.050Z,0.00
2023-04-22T00:58:35.923Z,0.00
2023-04-22T00:59:36.860Z,0.00
2023-04-22T01:00:37.832Z,0.00
2023-04-22T01:01:38.708Z,0.00
2023-04-22T01:02:39.752Z,0.00
2023-04-22T01:03:40.434Z,0.00
2023-04-22T01:04:40.897Z,0.00
2023-04-22T01:05:41.796Z,0.00
2023-04-22T01:06:42.671Z,0.00
2023-04-22T01:07:43.573Z,0.00
2023-04-22T01:08:44.452Z,0.00
2023-04-22T01:09:45.350Z,0.00
2023-04-22T01:10:46.273Z,0.00
2023-04-22T01:11:47.165Z,0.00
2023-04-22T01:12:48.054Z,0.00
2023-04-22T01:13:48.974Z,0.00
2023-04-22T01:14:49.844Z,0.00
2023-04-22T01:15:50.727Z,0.00
2023-04-22T01:16:51.726Z,0.00
2023-04-22T01:17:52.813Z,0.00
2023-04-22T01:18:53.196Z,0.00
2023-04-22T01:19:54.087Z,0.00
2023-04-22T01:20:54.948Z,0.00
2023-04-22T01:21:55.872Z,0.00
2023-04-22T01:22:56.756Z,0.00
2023-04-22T01:23:57.655Z,0.00
2023-04-22T01:24:58.554Z,0.00
2023-04-22T01:25:59.567Z,0.00
2023-04-22T01:26:59.956Z,0.00
2023-04-22T01:28:00.874Z,0.00
2023-04-22T01:29:01.813Z,0.00
2023-04-22T01:30:02.732Z,0.00
2023-04-22T01:31:03.637Z,0.00
2023-04-22T01:32:04.547Z,0.00
2023-04-22T01:33:05.873Z,0.00
2023-04-22T01:34:06.214Z,0.00
2023-04-22T01:35:07.111Z,0.00
2023-04-22T01:36:08.009Z,0.00
2023-04-22T01:37:08.777Z,0.00
2023-04-22T01:38:09.203Z,0.00
2023-04-22T01:39:10.094Z,0.00
2023-04-22T01:40:11.297Z,0.00
2023-04-22T01:41:11.715Z,0.00
2023-04-22T01:42:12.621Z,0.00
2023-04-22T01:43:13.572Z,0.00
2023-04-22T01:44:14.553Z,0.00
2023-04-22T01:45:15.459Z,0.00
2023-04-22T01:46:16.348Z,0.00
2023-04-22T01:47:17.551Z,0.00
2023-04-22T01:48:17.959Z,0.00
2023-04-22T01:49:18.865Z,0.00
2023-04-22T01:50:19.753Z,0.00
2023-04-22T01:51:20.664Z,0.00
2023-04-22T01:52:21.550Z,0.00
2023-04-22T01:53:22.461Z,0.00
2023-04-22T01:54:24.333Z,0.00
2023-04-22T01:55:24.208Z,0.00
2023-04-22T01:56:25.116Z,0.00
2023-04-22T01:57:25.982Z,0.00
2023-04-22T01:58:26.902Z,0.00
2023-04-22T01:59:27.804Z,0.00
2023-04-22T02:00:28.674Z,0.00
2023-04-22T02:01:29.830Z,0.00
2023-04-22T02:02:30.241Z,0.00
2023-04-22T02:03:31.407Z,0.00
2023-04-22T02:04:31.877Z,0.00
2023-04-22T02:05:32.766Z,0.00
2023-04-22T02:06:33.704Z,0.00
2023-04-22T02:07:34.591Z,0.00
2023-04-22T02:08:35.518Z,0.00
2023-04-22T02:09:36.503Z,0.00
2023-04-22T02:10:36.946Z,0.00
2023-04-22T02:11:37.846Z,0.00
2023-04-22T02:12:38.751Z,0.00
2023-04-22T02:13:39.645Z,0.00
2023-04-22T02:14:40.542Z,0.00
2023-04-22T02:15:41.476Z,0.00
2023-04-22T02:16:42.328Z,0.00
2023-04-22T02:17:43.209Z,0.00
2023-04-22T02:18:44.127Z,0.00
2023-04-22T02:19:45.064Z,0.00
2023-04-22T02:20:45.949Z,0.00
2023-04-22T02:21:46.812Z,0.00
2023-04-22T02:22:47.690Z,0.00
2023-04-22T02:23:48.591Z,0.00
2023-04-22T02:24:49.482Z,0.00
2023-04-22T02:25:50.380Z,0.00
2023-04-22T02:26:51.300Z,0.00
2023-04-22T02:27:52.181Z,0.00
2023-04-22T02:28:53.143Z,0.00
2023-04-22T02:29:54.035Z,0.00
2023-04-22T02:30:54.944Z,0.00
2023-04-22T02:31:55.892Z,0.00
2023-04-22T02:32:56.490Z,0.00
2023-04-22T02:33:56.893Z,0.00
2023-04-22T02:34:57.789Z,0.00
2023-04-22T02:35:58.671Z,0.00
2023-04-22T02:36:59.567Z,0.00
2023-04-22T02:38:00.526Z,0.00
2023-04-22T02:39:01.454Z,0.00
2023-04-22T02:40:02.336Z,0.00
2023-04-22T02:41:03.218Z,0.00
2023-04-22T02:42:04.172Z,0.00
2023-04-22T02:43:04.981Z,0.00
2023-04-22T02:44:05.969Z,0.00
2023-04-22T02:45:06.892Z,0.00
2023-04-22T02:46:07.817Z,0.00
2023-04-22T02:47:08.948Z,0.00
2023-04-22T02:48:09.451Z,0.00
2023-04-22T02:49:10.361Z,0.00
2023-04-22T02:50:11.248Z,0.00
2023-04-22T02:51:12.163Z,0.00
2023-04-22T02:52:13.114Z,0.00
2023-04-22T02:53:14.004Z,0.00
2023-04-22T02:54:14.885Z,0.00
2023-04-22T02:55:15.771Z,0.00
2023-04-22T02:56:16.674Z,0.00
2023-04-22T02:57:17.573Z,0.00
2023-04-22T02:58:18.465Z,0.00
2023-04-22T02:59:19.344Z,0.00
2023-04-22T03:00:20.235Z,0.00
2023-04-22T03:01:21.219Z,0.00
2023-04-22T03:02:22.151Z,0.00
2023-04-22T03:03:22.823Z,0.00
2023-04-22T03:04:23.428Z,0.00
2023-04-22T03:05:24.328Z,0.00
2023-04-22T03:06:25.228Z,0.00
2023-04-22T03:07:26.105Z,0.00
2023-04-22T03:08:27.032Z,0.00
2023-04-22T03:09:27.954Z,0.00
2023-04-22T03:10:28.815Z,0.00
2023-04-22T03:11:29.700Z,0.00
2023-04-22T03:12:30.620Z,0.00
2023-04-22T03:13:31.476Z,0.00
2023-04-22T03:14:32.398Z,0.00
2023-04-22T03:15:33.316Z,0.00
2023-04-22T03:16:34.258Z,0.00
2023-04-22T03:17:35.223Z,0.00
2023-04-22T03:18:36.096Z,0.00
2023-04-22T03:19:37.190Z,0.00
2023-04-22T03:20:37.567Z,0.00
2023-04-22T03:21:38.471Z,0.00
2023-04-22T03:22:39.377Z,0.00
2023-04-22T03:23:40.253Z,0.00
2023-04-22T03:24:41.169Z,0.00
2023-04-22T03:25:42.069Z,0.00
2023-04-22T03:26:42.951Z,0.00
2023-04-22T03:27:43.866Z,0.00
2023-04-22T03:28:44.796Z,0.00
2023-04-22T03:29:45.701Z,0.00
2023-04-22T03:30:46.591Z,0.00
2023-04-22T03:31:47.509Z,0.00
2023-04-22T03:32:48.473Z,0.00
2023-04-22T03:33:49.351Z,0.00
2023-04-22T03:34:50.265Z,0.00
2023-04-22T03:35:51.130Z,0.00
2023-04-22T03:36:52.020Z,0.00
2023-04-22T03:37:52.898Z,0.00
2023-04-22T03:38:53.813Z,0.00
2023-04-22T03:39:54.720Z,0.00
2023-04-22T03:40:55.658Z,0.00
2023-04-22T03:41:56.540Z,0.00
2023-04-22T03:42:57.452Z,0.00
2023-04-22T03:44:01.531Z,0.00
2023-04-22T03:44:59.193Z,0.00
2023-04-22T03:46:00.250Z,0.00
2023-04-22T03:47:00.635Z,0.00
2023-04-22T03:48:01.353Z,0.00
2023-04-22T03:49:02.234Z,1.00
2023-04-22T03:50:03.125Z,0.00
2023-04-22T03:51:04.045Z,0.00
2023-04-22T03:52:04.891Z,1.00
2023-04-22T03:53:05.738Z,1.00
2023-04-22T03:54:06.625Z,0.00
2023-04-22T03:55:07.547Z,2.00
2023-04-22T03:56:08.362Z,1.00
2023-04-22T03:57:09.271Z,0.00
2023-04-22T03:58:10.117Z,2.00
2023-04-22T03:59:10.962Z,1.00
2023-04-22T04:00:11.790Z,1.00
2023-04-22T04:01:12.708Z,1.00
2023-04-22T04:02:13.589Z,2.00
2023-04-22T04:03:14.534Z,3.00
2023-04-22T04:04:15.255Z,3.00
2023-04-22T04:05:15.993Z,4.00
2023-04-22T04:06:16.409Z,5.00
2023-04-22T04:07:17.231Z,6.00
2023-04-22T04:08:18.058Z,6.00
2023-04-22T04:09:18.937Z,7.00
2023-04-22T04:10:19.790Z,8.00
2023-04-22T04:11:20.683Z,11.00
2023-04-22T04:12:21.495Z,12.00
2023-04-22T04:13:22.372Z,18.00
2023-04-22T04:14:23.213Z,19.00
2023-04-22T04:15:24.049Z,23.00
2023-04-22T04:16:24.979Z,23.00
2023-04-22T04:17:26.004Z,21.00
2023-04-22T04:18:26.416Z,24.00
2023-04-22T04:19:27.270Z,23.00
2023-04-22T04:20:28.097Z,25.00
2023-04-22T04:21:28.924Z,30.00
2023-04-22T04:22:29.787Z,34.00
2023-04-22T04:23:30.649Z,37.00
2023-04-22T04:24:31.490Z,44.00
2023-04-22T04:25:32.337Z,52.00
2023-04-22T04:26:33.205Z,57.00
2023-04-22T04:27:34.034Z,62.00
2023-04-22T04:28:34.886Z,69.00
2023-04-22T04:29:35.722Z,76.00
2023-04-22T04:30:36.541Z,81.00
2023-04-22T04:31:37.427Z,84.00
2023-04-22T04:32:38.321Z,88.00
2023-04-22T04:33:39.126Z,90.00
2023-04-22T04:34:39.969Z,95.00
2023-04-22T04:35:40.794Z,96.00
2023-04-22T04:36:41.639Z,101.00
2023-04-22T04:37:42.450Z,105.00
2023-04-22T04:38:43.270Z,110.00
2023-04-22T04:39:44.098Z,114.00
2023-04-22T04:40:44.925Z,120.00
2023-04-22T04:41:45.756Z,121.00
2023-04-22T04:42:46.609Z,125.00
2023-04-22T04:43:47.433Z,131.00
2023-04-22T04:44:48.244Z,133.00
2023-04-22T04:45:49.168Z,141.00
2023-04-22T04:46:49.936Z,144.00
2023-04-22T04:47:50.857Z,148.00
2023-04-22T04:48:51.698Z,154.00
2023-04-22T04:49:52.517Z,155.00
2023-04-22T04:50:53.343Z,154.00
2023-04-22T04:51:54.169Z,160.00
2023-04-22T04:52:54.997Z,163.00
2023-04-22T04:53:55.813Z,172.00
2023-04-22T04:54:56.657Z,179.00
2023-04-22T04:55:57.496Z,184.00
2023-04-22T04:56:58.307Z,198.00
2023-04-22T04:57:59.135Z,208.00
2023-04-22T04:58:59.969Z,223.00
2023-04-22T05:00:00.779Z,231.00
2023-04-22T05:01:01.617Z,239.00
2023-04-22T05:02:02.742Z,248.00
2023-04-22T05:03:03.253Z,259.00
2023-04-22T05:04:03.774Z,272.00
2023-04-22T05:05:04.270Z,286.00
2023-04-22T05:06:05.097Z,302.00
2023-04-22T05:07:05.972Z,316.00
2023-04-22T05:08:06.753Z,336.00
2023-04-22T05:09:07.606Z,349.00
2023-04-22T05:10:08.425Z,361.00
2023-04-22T05:11:09.248Z,374.00
2023-04-22T05:12:10.083Z,384.00
2023-04-22T05:13:10.915Z,396.00
2023-04-22T05:14:11.758Z,403.00
2023-04-22T05:15:12.574Z,410.00
2023-04-22T05:16:13.435Z,412.00
2023-04-22T05:17:14.247Z,419.00
2023-04-22T05:18:15.076Z,420.00
2023-04-22T05:19:15.920Z,428.00
2023-04-22T05:20:16.743Z,434.00
2023-04-22T05:21:17.584Z,442.00
2023-04-22T05:22:18.384Z,443.00
2023-04-22T05:23:19.219Z,447.00
2023-04-22T05:24:20.037Z,460.00
2023-04-22T05:25:20.885Z,471.00
2023-04-22T05:26:21.705Z,483.00
2023-04-22T05:27:22.524Z,490.00
2023-04-22T05:28:23.343Z,491.00
2023-04-22T05:29:24.186Z,500.00
2023-04-22T05:30:24.994Z,523.00
2023-04-22T05:31:25.897Z,548.00
2023-04-22T05:32:26.792Z,576.00
2023-04-22T05:33:27.623Z,589.00
2023-04-22T05:34:28.451Z,606.00
2023-04-22T05:35:29.281Z,616.00
2023-04-22T05:36:31.617Z,630.00
2023-04-22T05:37:30.998Z,634.00
2023-04-22T05:38:31.824Z,654.00
2023-04-22T05:39:32.646Z,684.00
2023-04-22T05:40:33.468Z,722.00
2023-04-22T05:41:34.301Z,755.00
2023-04-22T05:42:35.123Z,760.00
2023-04-22T05:43:35.971Z,801.00
2023-04-22T05:44:36.819Z,879.00
2023-04-22T05:45:37.704Z,937.00
2023-04-22T05:46:38.562Z,980.00
2023-04-22T05:47:39.504Z,962.00
2023-04-22T05:48:40.293Z,929.00
2023-04-22T05:49:41.587Z,908.00
2023-04-22T05:50:42.126Z,889.00
2023-04-22T05:51:42.948Z,871.00
2023-04-22T05:52:43.775Z,849.00
2023-04-22T05:53:44.592Z,810.00
2023-04-22T05:54:45.415Z,919.00
2023-04-22T05:55:46.256Z,1101.00
2023-04-22T05:56:47.074Z,1655.00
2023-04-22T05:57:47.914Z,855.00
2023-04-22T05:58:48.764Z,1358.00
2023-04-22T05:59:49.571Z,1519.00
2023-04-22T06:00:50.373Z,1182.00
2023-04-22T06:01:51.220Z,1202.00
2023-04-22T06:02:52.200Z,1566.00
2023-04-22T06:03:52.893Z,1556.00
2023-04-22T06:04:53.644Z,1406.00
2023-04-22T06:05:54.291Z,2110.00
2023-04-22T06:06:54.677Z,2124.00
2023-04-22T06:07:55.484Z,2378.00
2023-04-22T06:08:56.306Z,1122.00
2023-04-22T06:10:04.107Z,2345.00
2023-04-22T06:10:58.856Z,1828.00
2023-04-22T06:11:58.679Z,1511.00
2023-04-22T06:12:59.521Z,2063.00
2023-04-22T06:14:00.349Z,1865.00
2023-04-22T06:15:01.182Z,1682.00
2023-04-22T06:16:02.084Z,1296.00
2023-04-22T06:17:02.900Z,1477.00
2023-04-22T06:18:03.736Z,1257.00
2023-04-22T06:19:04.532Z,1452.00
2023-04-22T06:20:05.438Z,1640.00
2023-04-22T06:21:06.265Z,1668.00
2023-04-22T06:22:07.084Z,1642.00
2023-04-22T06:23:07.899Z,1504.00
2023-04-22T06:24:08.739Z,1363.00
2023-04-22T06:25:09.550Z,1402.00
2023-04-22T06:26:10.395Z,1523.00
2023-04-22T06:27:11.212Z,1616.00
2023-04-22T06:28:12.047Z,1715.00
2023-04-22T06:29:12.868Z,1396.00
2023-04-22T06:30:13.726Z,1742.00
2023-04-22T06:31:14.558Z,1884.00
2023-04-22T06:32:15.402Z,2517.00
2023-04-22T06:33:16.263Z,2758.00
2023-04-22T06:34:17.034Z,2418.00
2023-04-22T06:35:17.862Z,2418.00
2023-04-22T06:36:18.701Z,2025.00
2023-04-22T06:37:19.516Z,2141.00
2023-04-22T06:38:20.369Z,2407.00
2023-04-22T06:39:21.172Z,2719.00
2023-04-22T06:40:22.012Z,2623.00
2023-04-22T06:41:22.839Z,2752.00
2023-04-22T06:42:23.658Z,3076.00
2023-04-22T06:43:24.470Z,3434.00
2023-04-22T06:44:25.320Z,3175.00
2023-04-22T06:45:26.149Z,3679.00
2023-04-22T06:46:26.975Z,2938.00
2023-04-22T06:47:27.794Z,3926.00
2023-04-22T06:48:28.631Z,3598.00
2023-04-22T06:49:29.429Z,3978.00
2023-04-22T06:50:30.280Z,3959.00
2023-04-22T06:51:31.145Z,3221.00
2023-04-22T06:52:31.931Z,2678.00
2023-04-22T06:53:32.756Z,3746.00
2023-04-22T06:54:33.580Z,4011.00
2023-04-22T06:55:34.397Z,4239.00
2023-04-22T06:56:35.252Z,3873.00
2023-04-22T06:57:36.084Z,4305.00
2023-04-22T06:58:36.892Z,5180.00
2023-04-22T06:59:37.971Z,3515.00
2023-04-22T07:00:38.377Z,4014.00
2023-04-22T07:01:39.214Z,4736.00
2023-04-22T07:02:40.127Z,4830.00
2023-04-22T07:03:41.210Z,4658.00
2023-04-22T07:04:41.784Z,4639.00
2023-04-22T07:05:42.129Z,4945.00
2023-04-22T07:06:42.963Z,4580.00
2023-04-22T07:07:43.776Z,5152.00
2023-04-22T07:08:44.634Z,5198.00
2023-04-22T07:09:45.445Z,5510.00
2023-04-22T07:10:46.269Z,5940.00
2023-04-22T07:11:47.093Z,5863.00
2023-04-22T07:12:47.930Z,6545.00
2023-04-22T07:13:48.764Z,6440.00
2023-04-22T07:14:49.579Z,6836.00
2023-04-22T07:15:50.463Z,6987.00
2023-04-22T07:16:51.277Z,6625.00
2023-04-22T07:17:52.159Z,6504.00
2023-04-22T07:18:52.952Z,6356.00
2023-04-22T07:19:53.777Z,6634.00
2023-04-22T07:20:54.641Z,6436.00
2023-04-22T07:21:55.482Z,6192.00
2023-04-22T07:22:56.378Z,6608.00
2023-04-22T07:23:57.191Z,5982.00
2023-04-22T07:24:58.016Z,6242.00
2023-04-22T07:25:58.848Z,5857.00
2023-04-22T07:26:59.681Z,5064.00
2023-04-22T07:28:00.508Z,3747.00
2023-04-22T07:29:01.333Z,4612.00
2023-04-22T07:30:02.159Z,5411.00
2023-04-22T07:31:03.013Z,5836.00
2023-04-22T07:32:03.844Z,3494.00
2023-04-22T07:33:04.681Z,5127.00
2023-04-22T07:34:05.464Z,4735.00
2023-04-22T07:35:06.298Z,4424.00
2023-04-22T07:36:07.144Z,5522.00
2023-04-22T07:37:07.983Z,4629.00
2023-04-22T07:38:09.853Z,5155.00
2023-04-22T07:39:09.467Z,5435.00
2023-04-22T07:40:10.251Z,5348.00
2023-04-22T07:41:11.081Z,5761.00
2023-04-22T07:42:11.914Z,6536.00
2023-04-22T07:43:12.753Z,5229.00
2023-04-22T07:44:13.569Z,4477.00
2023-04-22T07:45:14.390Z,7575.00
2023-04-22T07:46:15.267Z,3176.00
2023-04-22T07:47:16.073Z,6310.00
2023-04-22T07:48:16.892Z,6872.00
2023-04-22T07:49:17.716Z,5549.00
2023-04-22T07:50:18.591Z,7847.00
2023-04-22T07:51:19.368Z,5175.00
2023-04-22T07:52:20.205Z,5215.00
2023-04-22T07:53:21.027Z,3908.00
2023-04-22T07:54:21.867Z,11200.00
2023-04-22T07:55:22.678Z,15700.00
2023-04-22T07:56:23.556Z,12317.00
2023-04-22T07:57:24.357Z,6555.00
2023-04-22T07:58:25.175Z,10562.00
2023-04-22T07:59:26.002Z,8797.00
2023-04-22T08:00:26.828Z,12965.00
2023-04-22T08:01:27.663Z,13480.00
2023-04-22T08:02:28.599Z,12632.00
2023-04-22T08:03:29.608Z,10597.00
2023-04-22T08:04:30.276Z,13017.00
2023-04-22T08:05:30.615Z,14185.00
2023-04-22T08:06:31.437Z,26026.00
2023-04-22T08:07:33.624Z,18823.00
2023-04-22T08:08:33.116Z,30462.00
2023-04-22T08:09:33.901Z,27831.00
2023-04-22T08:10:34.722Z,25074.00
2023-04-22T08:11:35.549Z,24254.00
2023-04-22T08:12:36.388Z,28808.00
2023-04-22T08:13:37.226Z,26527.00
2023-04-22T08:14:38.086Z,11074.00
2023-04-22T08:15:38.901Z,5015.00
2023-04-22T08:16:39.729Z,3519.00
2023-04-22T08:17:40.541Z,3044.00
2023-04-22T08:18:41.364Z,2384.00
2023-04-22T08:19:42.314Z,2442.00
2023-04-22T08:20:43.134Z,2465.00
2023-04-22T08:21:43.928Z,2425.00
2023-04-22T08:22:44.769Z,2193.00
2023-04-22T08:23:45.581Z,2278.00
2023-04-22T08:24:46.407Z,2117.00
2023-04-22T08:25:47.244Z,2074.00
2023-04-22T08:26:48.113Z,2290.00
2023-04-22T08:27:48.915Z,2222.00
2023-04-22T08:28:49.744Z,2180.00
2023-04-22T08:29:50.572Z,2162.00
2023-04-22T08:30:51.398Z,2129.00
2023-04-22T08:31:52.244Z,2201.00
2023-04-22T08:32:53.139Z,1668.00
2023-04-22T08:33:53.902Z,1873.00
2023-04-22T08:35:03.590Z,1919.00
2023-04-22T08:35:56.439Z,1672.00
2023-04-22T08:36:56.270Z,1769.00
2023-04-22T08:37:57.143Z,1715.00
2023-04-22T08:38:57.956Z,1640.00
2023-04-22T08:39:58.770Z,1608.00
2023-04-22T08:40:59.578Z,1626.00
2023-04-22T08:42:00.396Z,1413.00
2023-04-22T08:43:01.252Z,1514.00
2023-04-22T08:44:02.123Z,1557.00
2023-04-22T08:45:02.922Z,1435.00
2023-04-22T08:46:03.731Z,1261.00
2023-04-22T08:47:04.671Z,1219.00
2023-04-22T08:48:05.549Z,1262.00
2023-04-22T08:49:06.403Z,1253.00
2023-04-22T08:50:07.197Z,1216.00
2023-04-22T08:51:08.027Z,1186.00
2023-04-22T08:52:08.839Z,1190.00
2023-04-22T08:53:09.679Z,1106.00
2023-04-22T08:54:10.503Z,1143.00
2023-04-22T08:55:11.361Z,1161.00
2023-04-22T08:56:12.161Z,1102.00
2023-04-22T08:57:12.991Z,1112.00
2023-04-22T08:58:13.826Z,1113.00
2023-04-22T08:59:14.685Z,1028.00
2023-04-22T09:00:15.484Z,973.00
2023-04-22T09:01:16.388Z,1050.00
2023-04-22T09:02:17.231Z,992.00
2023-04-22T09:03:18.119Z,943.00
2023-04-22T09:04:19.075Z,956.00
2023-04-22T09:05:19.412Z,941.00
2023-04-22T09:06:20.309Z,945.00
2023-04-22T09:07:21.089Z,962.00
2023-04-22T09:08:21.920Z,967.00
2023-04-22T09:09:22.747Z,960.00
2023-04-22T09:10:23.565Z,967.00
2023-04-22T09:11:24.390Z,982.00
2023-04-22T09:12:25.281Z,970.00
2023-04-22T09:13:26.076Z,988.00
2023-04-22T09:14:26.919Z,1005.00
2023-04-22T09:15:27.745Z,941.00
2023-04-22T09:16:28.640Z,967.00
2023-04-22T09:17:29.452Z,948.00
2023-04-22T09:18:30.286Z,974.00
2023-04-22T09:19:31.082Z,1000.00
2023-04-22T09:20:31.908Z,1027.00
2023-04-22T09:21:32.735Z,989.00
2023-04-22T09:22:33.556Z,1016.00
2023-04-22T09:23:34.391Z,1043.00
2023-04-22T09:24:35.247Z,1054.00
2023-04-22T09:25:36.046Z,1055.00
2023-04-22T09:26:36.864Z,1077.00
2023-04-22T09:27:37.690Z,1044.00
2023-04-22T09:28:38.519Z,1043.00
2023-04-22T09:29:39.768Z,1021.00
2023-04-22T09:30:40.342Z,1026.00
2023-04-22T09:31:41.178Z,1015.00
2023-04-22T09:32:42.109Z,976.00
2023-04-22T09:33:42.917Z,974.00
2023-04-22T09:34:43.734Z,963.00
2023-04-22T09:35:44.560Z,926.00
2023-04-22T09:36:45.430Z,933.00
2023-04-22T09:37:49.607Z,909.00
2023-04-22T09:38:47.063Z,920.00
2023-04-22T09:39:49.593Z,912.00
2023-04-22T09:40:48.527Z,868.00
2023-04-22T09:41:49.353Z,845.00
2023-04-22T09:42:50.233Z,829.00
2023-04-22T09:43:51.028Z,763.00
2023-04-22T09:44:51.841Z,761.00
2023-04-22T09:45:52.706Z,755.00
2023-04-22T09:46:53.490Z,748.00
2023-04-22T09:47:54.394Z,747.00
2023-04-22T09:48:55.280Z,750.00
2023-04-22T09:49:56.087Z,734.00
2023-04-22T09:50:56.890Z,716.00
2023-04-22T09:51:57.722Z,736.00
2023-04-22T09:52:58.536Z,737.00
2023-04-22T09:53:59.407Z,721.00
2023-04-22T09:55:00.249Z,729.00
2023-04-22T09:56:01.042Z,719.00
2023-04-22T09:57:01.851Z,702.00
2023-04-22T09:58:02.682Z,710.00
2023-04-22T09:59:03.521Z,711.00
2023-04-22T10:00:04.357Z,679.00
2023-04-22T10:01:05.245Z,689.00
2023-04-22T10:02:06.039Z,682.00
2023-04-22T10:03:08.252Z,682.00
2023-04-22T10:04:07.864Z,667.00
2023-04-22T10:05:08.644Z,676.00
2023-04-22T10:06:09.488Z,670.00
2023-04-22T10:07:10.348Z,674.00
2023-04-22T10:08:11.245Z,668.00
2023-04-22T10:09:12.064Z,658.00
2023-04-22T10:10:12.900Z,655.00
2023-04-22T10:11:13.721Z,665.00
2023-04-22T10:12:16.560Z,637.00
2023-04-22T10:13:15.525Z,651.00
2023-04-22T10:14:16.313Z,633.00
2023-04-22T10:15:17.132Z,628.00
2023-04-22T10:16:17.987Z,649.00
2023-04-22T10:17:18.769Z,643.00
2023-04-22T10:18:19.614Z,649.00
2023-04-22T10:19:20.485Z,639.00
2023-04-22T10:20:21.270Z,602.00
2023-04-22T10:21:22.075Z,630.00
2023-04-22T10:22:22.906Z,600.00
2023-04-22T10:23:23.743Z,593.00
2023-04-22T10:24:24.568Z,599.00
2023-04-22T10:25:25.430Z,576.00
2023-04-22T10:26:26.224Z,564.00
2023-04-22T10:27:27.054Z,536.00
2023-04-22T10:28:27.870Z,535.00
2023-04-22T10:29:28.696Z,543.00
2023-04-22T10:30:29.525Z,531.00
2023-04-22T10:31:30.505Z,546.00
2023-04-22T10:32:31.348Z,523.00
2023-04-22T10:33:32.165Z,527.00
2023-04-22T10:34:32.998Z,503.00
2023-04-22T10:35:33.797Z,498.00
2023-04-22T10:36:34.625Z,506.00
2023-04-22T10:37:35.525Z,511.00
2023-04-22T10:38:36.311Z,508.00
2023-04-22T10:39:37.148Z,498.00
2023-04-22T10:40:37.969Z,498.00
2023-04-22T10:41:38.789Z,512.00
2023-04-22T10:42:39.626Z,494.00
2023-04-22T10:43:40.485Z,500.00
2023-04-22T10:44:41.286Z,501.00
2023-04-22T10:45:42.104Z,481.00
2023-04-22T10:46:43.044Z,488.00
2023-04-22T10:47:43.830Z,501.00
2023-04-22T10:48:44.656Z,493.00
2023-04-22T10:49:45.524Z,483.00
2023-04-22T10:50:46.309Z,486.00
2023-04-22T10:51:47.144Z,494.00
2023-04-22T10:52:47.966Z,493.00
2023-04-22T10:53:48.773Z,520.00
2023-04-22T10:54:49.666Z,516.00
2023-04-22T10:55:50.462Z,513.00
2023-04-22T10:56:57.542Z,528.00
2023-04-22T10:57:53.002Z,529.00
2023-04-22T10:58:52.828Z,513.00
2023-04-22T10:59:53.662Z,450.00
2023-04-22T11:00:54.659Z,497.00
2023-04-22T11:01:55.480Z,491.00
2023-04-22T11:02:56.435Z,464.00
2023-04-22T11:03:56.893Z,468.00
2023-04-22T11:04:57.732Z,487.00
2023-04-22T11:05:58.556Z,482.00
2023-04-22T11:06:59.432Z,499.00
2023-04-22T11:08:00.227Z,491.00
2023-04-22T11:09:01.057Z,475.00
2023-04-22T11:10:01.885Z,486.00
2023-04-22T11:11:02.708Z,523.00
2023-04-22T11:12:03.543Z,468.00
2023-04-22T11:13:04.407Z,470.00
2023-04-22T11:14:05.194Z,439.00
2023-04-22T11:15:06.046Z,458.00
2023-04-22T11:16:06.874Z,468.00
2023-04-22T11:17:07.694Z,480.00
2023-04-22T11:18:08.519Z,484.00
2023-04-22T11:19:09.396Z,486.00
2023-04-22T11:20:10.200Z,475.00
2023-04-22T11:21:11.021Z,461.00
2023-04-22T11:22:11.849Z,471.00
2023-04-22T11:23:12.675Z,462.00
2023-04-22T11:24:13.494Z,464.00
2023-04-22T11:25:14.392Z,519.00
2023-04-22T11:26:15.174Z,492.00
2023-04-22T11:27:16.006Z,478.00
2023-04-22T11:28:16.830Z,466.00
2023-04-22T11:29:17.656Z,480.00
2023-04-22T11:30:18.494Z,462.00
2023-04-22T11:31:19.384Z,480.00
2023-04-22T11:32:20.174Z,470.00
2023-04-22T11:33:20.998Z,475.00
2023-04-22T11:34:21.842Z,501.00
2023-04-22T11:35:22.658Z,501.00
2023-04-22T11:36:23.482Z,504.00
2023-04-22T11:37:24.349Z,465.00
2023-04-22T11:38:25.145Z,488.00
2023-04-22T11:39:25.967Z,449.00
2023-04-22T11:40:30.214Z,519.00
2023-04-22T11:41:27.364Z,438.00
2023-04-22T11:42:28.194Z,499.00
2023-04-22T11:43:29.087Z,453.00
2023-04-22T11:44:29.862Z,507.00
2023-04-22T11:45:30.758Z,529.00
2023-04-22T11:46:31.687Z,453.00
2023-04-22T11:47:32.517Z,561.00
2023-04-22T11:48:33.337Z,420.00
2023-04-22T11:49:34.199Z,508.00
2023-04-22T11:50:35.005Z,532.00
2023-04-22T11:51:35.828Z,532.00
2023-04-22T11:52:36.652Z,503.00
2023-04-22T11:53:37.489Z,535.00
2023-04-22T11:54:38.311Z,556.00
2023-04-22T11:55:39.154Z,627.00
2023-04-22T11:56:40.034Z,526.00
2023-04-22T11:57:40.812Z,549.00
2023-04-22T11:58:41.630Z,589.00
2023-04-22T11:59:42.604Z,529.00
2023-04-22T12:00:43.413Z,531.00
2023-04-22T12:01:44.215Z,528.00
2023-04-22T12:02:45.167Z,455.00
2023-04-22T12:03:46.214Z,486.00
2023-04-22T12:04:46.584Z,818.00
2023-04-22T12:05:47.455Z,233.00
2023-04-22T12:06:48.300Z,654.00
2023-04-22T12:07:49.124Z,543.00
2023-04-22T12:08:49.993Z,441.00
2023-04-22T12:09:50.780Z,574.00
2023-04-22T12:10:51.614Z,582.00
2023-04-22T12:11:52.496Z,646.00
2023-04-22T12:12:53.269Z,639.00
2023-04-22T12:13:54.089Z,674.00
2023-04-22T12:14:54.925Z,660.00
2023-04-22T12:15:55.761Z,704.00
2023-04-22T12:16:56.613Z,668.00
2023-04-22T12:17:57.472Z,642.00
2023-04-22T12:18:58.249Z,605.00
2023-04-22T12:19:59.082Z,614.00
2023-04-22T12:20:59.903Z,662.00
2023-04-22T12:22:00.722Z,592.00
2023-04-22T12:23:01.549Z,636.00
2023-04-22T12:24:02.364Z,577.00
2023-04-22T12:25:03.197Z,584.00
2023-04-22T12:26:04.042Z,685.00
2023-04-22T12:27:04.880Z,632.00
2023-04-22T12:28:05.687Z,671.00
2023-04-22T12:29:06.553Z,1007.00
2023-04-22T12:30:07.349Z,365.00
2023-04-22T12:31:08.224Z,681.00
2023-04-22T12:32:09.009Z,693.00
2023-04-22T12:33:09.835Z,750.00
2023-04-22T12:34:10.790Z,714.00
2023-04-22T12:35:11.633Z,723.00
2023-04-22T12:36:12.435Z,694.00
2023-04-22T12:37:13.261Z,730.00
2023-04-22T12:38:14.081Z,1103.00
2023-04-22T12:39:14.941Z,832.00
2023-04-22T12:40:15.728Z,646.00
2023-04-22T12:41:16.582Z,269.00
2023-04-22T12:42:17.402Z,928.00
2023-04-22T12:43:18.224Z,399.00
2023-04-22T12:44:19.043Z,791.00
2023-04-22T12:45:19.867Z,814.00
2023-04-22T12:46:20.727Z,841.00
2023-04-22T12:47:21.591Z,1040.00
2023-04-22T12:48:22.362Z,619.00